sensor_id;sensor_type;location;lat;lon;timestamp;pressure;altitude;pressure_sealevel;temperature;humidity
61870;BME280;47810;42.264;23.826;2023-04-26T00:00:42;92849.63;;;9.17;79.14
61870;BME280;47810;42.264;23.826;2023-04-26T00:03:08;92839.53;;;8.99;80.88
61870;BME280;47810;42.264;23.826;2023-04-26T00:05:34;92840.97;;;9.03;80.97
61870;BME280;47810;42.264;23.826;2023-04-26T00:08:01;92827.44;;;9.08;81.13
61870;BME280;47810;42.264;23.826;2023-04-26T00:10:28;92830.22;;;9.06;81.33
61870;BME280;47810;42.264;23.826;2023-04-26T00:12:54;92827.16;;;8.89;81.29
61870;BME280;47810;42.264;23.826;2023-04-26T00:15:19;92827.75;;;8.92;80.95
61870;BME280;47810;42.264;23.826;2023-04-26T00:17:45;92821.34;;;8.96;81.90
61870;BME280;47810;42.264;23.826;2023-04-26T00:20:11;92815.78;;;8.88;80.51
61870;BME280;47810;42.264;23.826;2023-04-26T00:22:37;92816.75;;;8.87;79.60
61870;BME280;47810;42.264;23.826;2023-04-26T00:25:04;92811.31;;;8.66;80.72
61870;BME280;47810;42.264;23.826;2023-04-26T00:27:29;92811.00;;;8.47;80.87
61870;BME280;47810;42.264;23.826;2023-04-26T00:29:55;92808.94;;;8.39;81.65
61870;BME280;47810;42.264;23.826;2023-04-26T00:32:20;92810.91;;;8.48;80.72
61870;BME280;47810;42.264;23.826;2023-04-26T00:34:46;92804.66;;;8.38;81.14
61870;BME280;47810;42.264;23.826;2023-04-26T00:37:12;92805.34;;;8.40;81.33
61870;BME280;47810;42.264;23.826;2023-04-26T00:39:37;92810.59;;;8.64;80.46
61870;BME280;47810;42.264;23.826;2023-04-26T00:42:03;92805.66;;;8.59;80.35
61870;BME280;47810;42.264;23.826;2023-04-26T00:44:28;92806.13;;;8.53;79.67
61870;BME280;47810;42.264;23.826;2023-04-26T00:46:54;92807.47;;;8.35;81.14
61870;BME280;47810;42.264;23.826;2023-04-26T00:49:21;92812.91;;;8.45;82.09
61870;BME280;47810;42.264;23.826;2023-04-26T00:51:47;92806.94;;;8.54;82.20
61870;BME280;47810;42.264;23.826;2023-04-26T00:54:13;92802.56;;;8.54;82.67
61870;BME280;47810;42.264;23.826;2023-04-26T00:56:40;92808.94;;;8.74;81.08
61870;BME280;47810;42.264;23.826;2023-04-26T00:59:06;92814.09;;;8.76;79.96
61870;BME280;47810;42.264;23.826;2023-04-26T01:01:32;92804.38;;;8.65;80.65
61870;BME280;47810;42.264;23.826;2023-04-26T01:03:59;92808.28;;;8.59;80.20
61870;BME280;47810;42.264;23.826;2023-04-26T01:06:25;92799.41;;;8.49;81.53
61870;BME280;47810;42.264;23.826;2023-04-26T01:08:53;92807.22;;;8.51;80.19
61870;BME280;47810;42.264;23.826;2023-04-26T01:11:21;92803.69;;;8.39;80.42
61870;BME280;47810;42.264;23.826;2023-04-26T01:13:47;92805.34;;;8.40;80.36
61870;BME280;47810;42.264;23.826;2023-04-26T01:16:14;92806.22;;;8.28;80.79
61870;BME280;47810;42.264;23.826;2023-04-26T01:18:40;92814.09;;;8.28;80.79
61870;BME280;47810;42.264;23.826;2023-04-26T01:21:07;92816.97;;;8.25;80.90
61870;BME280;47810;42.264;23.826;2023-04-26T01:23:36;92815.84;;;7.92;81.97
61870;BME280;47810;42.264;23.826;2023-04-26T01:26:01;92816.88;;;7.89;82.72
61870;BME280;47810;42.264;23.826;2023-04-26T01:28:27;92831.47;;;7.57;82.93
61870;BME280;47810;42.264;23.826;2023-04-26T01:30:52;92825.00;;;7.37;83.00
61870;BME280;47810;42.264;23.826;2023-04-26T01:33:18;92820.56;;;7.50;82.82
61870;BME280;47810;42.264;23.826;2023-04-26T01:35:44;92818.50;;;7.42;83.72
61870;BME280;47810;42.264;23.826;2023-04-26T01:38:09;92821.19;;;7.41;83.75
61870;BME280;47810;42.264;23.826;2023-04-26T01:40:35;92811.78;;;7.26;82.60
61870;BME280;47810;42.264;23.826;2023-04-26T01:43:00;92814.63;;;6.97;84.02
61870;BME280;47810;42.264;23.826;2023-04-26T01:45:27;92821.22;;;7.15;83.59
61870;BME280;47810;42.264;23.826;2023-04-26T01:47:55;92818.50;;;7.17;83.38
61870;BME280;47810;42.264;23.826;2023-04-26T01:50:20;92809.25;;;7.11;83.56
61870;BME280;47810;42.264;23.826;2023-04-26T01:52:46;92802.44;;;7.21;83.46
61870;BME280;47810;42.264;23.826;2023-04-26T01:55:12;92799.69;;;7.36;82.32
61870;BME280;47810;42.264;23.826;2023-04-26T01:57:37;92801.03;;;7.41;82.52
61870;BME280;47810;42.264;23.826;2023-04-26T02:00:03;92796.13;;;7.37;82.78
61870;BME280;47810;42.264;23.826;2023-04-26T02:02:29;92791.81;;;7.36;82.67
61870;BME280;47810;42.264;23.826;2023-04-26T02:04:55;92800.53;;;7.23;83.17
61870;BME280;47810;42.264;23.826;2023-04-26T02:07:20;92797.72;;;7.27;82.86
61870;BME280;47810;42.264;23.826;2023-04-26T02:09:46;92804.84;;;7.24;84.01
61870;BME280;47810;42.264;23.826;2023-04-26T02:12:12;92801.38;;;7.11;83.80
61870;BME280;47810;42.264;23.826;2023-04-26T02:14:37;92808.84;;;7.17;82.88
61870;BME280;47810;42.264;23.826;2023-04-26T02:17:03;92822.72;;;6.94;83.52
61870;BME280;47810;42.264;23.826;2023-04-26T02:19:28;92825.63;;;6.76;84.29
61870;BME280;47810;42.264;23.826;2023-04-26T02:21:55;92826.22;;;6.67;84.85
61870;BME280;47810;42.264;23.826;2023-04-26T02:24:25;92828.09;;;6.13;86.44
61870;BME280;47810;42.264;23.826;2023-04-26T02:26:51;92822.56;;;6.17;86.46
61870;BME280;47810;42.264;23.826;2023-04-26T02:29:18;92825.47;;;6.40;86.09
61870;BME280;47810;42.264;23.826;2023-04-26T02:31:44;92832.09;;;6.45;85.67
61870;BME280;47810;42.264;23.826;2023-04-26T02:34:10;92830.59;;;6.41;85.66
61870;BME280;47810;42.264;23.826;2023-04-26T02:36:36;92818.25;;;6.56;84.94
61870;BME280;47810;42.264;23.826;2023-04-26T02:39:01;92818.34;;;6.54;85.33
61870;BME280;47810;42.264;23.826;2023-04-26T02:41:30;92806.81;;;6.57;85.39
61870;BME280;47810;42.264;23.826;2023-04-26T02:43:56;92806.94;;;6.68;85.25
61870;BME280;47810;42.264;23.826;2023-04-26T02:46:22;92804.63;;;6.64;84.45
61870;BME280;47810;42.264;23.826;2023-04-26T02:48:47;92796.50;;;6.41;85.13
61870;BME280;47810;42.264;23.826;2023-04-26T02:51:13;92791.84;;;6.59;86.38
61870;BME280;47810;42.264;23.826;2023-04-26T02:53:38;92796.06;;;6.74;84.07
61870;BME280;47810;42.264;23.826;2023-04-26T02:56:04;92791.19;;;6.56;84.29
61870;BME280;47810;42.264;23.826;2023-04-26T02:58:30;92794.91;;;6.39;85.27
61870;BME280;47810;42.264;23.826;2023-04-26T03:00:56;92806.13;;;6.68;84.86
61870;BME280;47810;42.264;23.826;2023-04-26T03:03:22;92801.66;;;6.43;85.48
61870;BME280;47810;42.264;23.826;2023-04-26T03:05:48;92805.63;;;6.36;85.15
61870;BME280;47810;42.264;23.826;2023-04-26T03:08:14;92794.72;;;6.42;84.92
61870;BME280;47810;42.264;23.826;2023-04-26T03:10:39;92800.28;;;6.37;85.97
61870;BME280;47810;42.264;23.826;2023-04-26T03:13:05;92801.47;;;6.46;86.05
61870;BME280;47810;42.264;23.826;2023-04-26T03:15:31;92809.47;;;6.17;85.68
61870;BME280;47810;42.264;23.826;2023-04-26T03:17:57;92804.94;;;6.19;85.75
61870;BME280;47810;42.264;23.826;2023-04-26T03:20:23;92807.00;;;6.41;84.36
61870;BME280;47810;42.264;23.826;2023-04-26T03:22:49;92813.06;;;6.42;84.23
61870;BME280;47810;42.264;23.826;2023-04-26T03:25:15;92804.16;;;6.44;85.44
61870;BME280;47810;42.264;23.826;2023-04-26T03:27:41;92799.34;;;6.51;83.95
61870;BME280;47810;42.264;23.826;2023-04-26T03:30:06;92804.63;;;6.64;82.87
61870;BME280;47810;42.264;23.826;2023-04-26T03:32:32;92805.16;;;6.56;83.25
61870;BME280;47810;42.264;23.826;2023-04-26T03:34:58;92799.34;;;6.51;83.27
61870;BME280;47810;42.264;23.826;2023-04-26T03:37:23;92787.41;;;6.47;83.69
61870;BME280;47810;42.264;23.826;2023-04-26T03:39:49;92798.97;;;6.17;83.98
61870;BME280;47810;42.264;23.826;2023-04-26T03:42:16;92800.97;;;6.14;84.57
61870;BME280;47810;42.264;23.826;2023-04-26T03:44:42;92793.09;;;6.14;85.06
61870;BME280;47810;42.264;23.826;2023-04-26T03:47:07;92798.09;;;6.04;85.34
61870;BME280;47810;42.264;23.826;2023-04-26T03:49:33;92798.03;;;6.18;84.61
61870;BME280;47810;42.264;23.826;2023-04-26T03:51:59;92805.75;;;6.07;85.16
61870;BME280;47810;42.264;23.826;2023-04-26T03:54:24;92811.47;;;5.99;85.19
61870;BME280;47810;42.264;23.826;2023-04-26T03:56:50;92811.13;;;6.18;85.09
61870;BME280;47810;42.264;23.826;2023-04-26T03:59:16;92811.41;;;6.01;85.57
61870;BME280;47810;42.264;23.826;2023-04-26T04:01:41;92806.16;;;6.01;86.09
61870;BME280;47810;42.264;23.826;2023-04-26T04:04:07;92808.13;;;6.24;86.62
61870;BME280;47810;42.264;23.826;2023-04-26T04:06:32;92799.88;;;6.43;86.01
61870;BME280;47810;42.264;23.826;2023-04-26T04:08:58;92811.13;;;6.58;86.37
61870;BME280;47810;42.264;23.826;2023-04-26T04:11:23;92819.97;;;6.83;83.71
61870;BME280;47810;42.264;23.826;2023-04-26T04:13:49;92827.97;;;6.94;82.63
61870;BME280;47810;42.264;23.826;2023-04-26T04:16:14;92826.38;;;6.91;82.08
61870;BME280;47810;42.264;23.826;2023-04-26T04:18:40;92821.75;;;6.95;82.78
61870;BME280;47810;42.264;23.826;2023-04-26T04:21:06;92823.00;;;7.28;80.71
61870;BME280;47810;42.264;23.826;2023-04-26T04:23:31;92823.22;;;7.24;81.29
61870;BME280;47810;42.264;23.826;2023-04-26T04:25:57;92829.97;;;7.16;81.79
61870;BME280;47810;42.264;23.826;2023-04-26T04:28:23;92827.53;;;7.26;81.74
61870;BME280;47810;42.264;23.826;2023-04-26T04:30:49;92836.88;;;7.30;81.66
61870;BME280;47810;42.264;23.826;2023-04-26T04:33:15;92829.84;;;7.17;82.46
61870;BME280;47810;42.264;23.826;2023-04-26T04:35:42;92832.78;;;7.26;83.36
61870;BME280;47810;42.264;23.826;2023-04-26T04:38:09;92840.94;;;7.46;82.93
61870;BME280;47810;42.264;23.826;2023-04-26T04:40:34;92834.22;;;7.55;82.36
61870;BME280;47810;42.264;23.826;2023-04-26T04:43:00;92837.75;;;7.67;82.10
61870;BME280;47810;42.264;23.826;2023-04-26T04:45:26;92844.72;;;7.68;82.03
61870;BME280;47810;42.264;23.826;2023-04-26T04:47:52;92841.09;;;7.82;81.86
61870;BME280;47810;42.264;23.826;2023-04-26T04:50:18;92837.72;;;7.80;82.31
61870;BME280;47810;42.264;23.826;2023-04-26T04:52:44;92845.31;;;7.72;82.66
61870;BME280;47810;42.264;23.826;2023-04-26T04:55:10;92843.72;;;7.82;82.54
61870;BME280;47810;42.264;23.826;2023-04-26T04:57:35;92838.59;;;7.80;83.25
61870;BME280;47810;42.264;23.826;2023-04-26T05:00:02;92849.56;;;7.49;82.57
61870;BME280;47810;42.264;23.826;2023-04-26T05:02:32;92845.13;;;7.62;81.76
61870;BME280;47810;42.264;23.826;2023-04-26T05:04:58;92840.19;;;7.57;81.40
61870;BME280;47810;42.264;23.826;2023-04-26T05:07:25;92835.72;;;7.34;81.39
61870;BME280;47810;42.264;23.826;2023-04-26T05:09:51;92837.88;;;7.65;81.62
61870;BME280;47810;42.264;23.826;2023-04-26T05:12:17;92829.31;;;7.87;82.10
61870;BME280;47810;42.264;23.826;2023-04-26T05:14:43;92839.34;;;8.06;81.27
61870;BME280;47810;42.264;23.826;2023-04-26T05:17:08;92843.72;;;8.19;80.17
61870;BME280;47810;42.264;23.826;2023-04-26T05:19:34;92853.41;;;8.05;80.75
61870;BME280;47810;42.264;23.826;2023-04-26T05:22:00;92849.44;;;8.12;82.10
61870;BME280;47810;42.264;23.826;2023-04-26T05:24:28;92853.94;;;8.34;81.28
61870;BME280;47810;42.264;23.826;2023-04-26T05:26:54;92849.78;;;8.32;81.40
61870;BME280;47810;42.264;23.826;2023-04-26T05:29:22;92851.88;;;8.39;81.62
61870;BME280;47810;42.264;23.826;2023-04-26T05:31:48;92855.72;;;8.71;80.17
61870;BME280;47810;42.264;23.826;2023-04-26T05:34:14;92848.81;;;8.81;79.66
61870;BME280;47810;42.264;23.826;2023-04-26T05:36:39;92850.59;;;8.80;78.02
61870;BME280;47810;42.264;23.826;2023-04-26T05:39:05;92851.13;;;8.61;80.12
61870;BME280;47810;42.264;23.826;2023-04-26T05:41:31;92849.78;;;8.80;80.19
61870;BME280;47810;42.264;23.826;2023-04-26T05:43:57;92848.81;;;8.92;80.07
61870;BME280;47810;42.264;23.826;2023-04-26T05:46:22;92844.28;;;8.83;78.59
61870;BME280;47810;42.264;23.826;2023-04-26T05:48:48;92846.47;;;9.00;79.64
61870;BME280;47810;42.264;23.826;2023-04-26T05:51:14;92844.84;;;9.33;78.76
61870;BME280;47810;42.264;23.826;2023-04-26T05:53:40;92850.13;;;9.22;79.11
61870;BME280;47810;42.264;23.826;2023-04-26T05:56:06;92846.78;;;9.42;79.49
61870;BME280;47810;42.264;23.826;2023-04-26T05:58:31;92843.66;;;9.48;78.64
61870;BME280;47810;42.264;23.826;2023-04-26T06:00:58;92837.94;;;9.54;78.67
61870;BME280;47810;42.264;23.826;2023-04-26T06:03:23;92845.59;;;9.69;77.94
61870;BME280;47810;42.264;23.826;2023-04-26T06:05:49;92842.00;;;9.81;77.53
61870;BME280;47810;42.264;23.826;2023-04-26T06:08:15;92842.44;;;9.97;77.37
61870;BME280;47810;42.264;23.826;2023-04-26T06:10:40;92841.97;;;10.03;77.47
61870;BME280;47810;42.264;23.826;2023-04-26T06:13:06;92831.50;;;10.24;77.77
61870;BME280;47810;42.264;23.826;2023-04-26T06:15:32;92830.41;;;10.38;76.63
61870;BME280;47810;42.264;23.826;2023-04-26T06:17:58;92840.94;;;10.49;76.02
61870;BME280;47810;42.264;23.826;2023-04-26T06:20:24;92837.00;;;10.44;75.98
61870;BME280;47810;42.264;23.826;2023-04-26T06:22:50;92842.00;;;10.58;76.00
61870;BME280;47810;42.264;23.826;2023-04-26T06:25:15;92838.75;;;10.55;74.49
61870;BME280;47810;42.264;23.826;2023-04-26T06:27:41;92848.34;;;10.56;74.87
61870;BME280;47810;42.264;23.826;2023-04-26T06:30:07;92845.78;;;10.22;75.02
61870;BME280;47810;42.264;23.826;2023-04-26T06:32:33;92844.13;;;10.10;75.39
61870;BME280;47810;42.264;23.826;2023-04-26T06:34:59;92847.59;;;10.10;74.72
61870;BME280;47810;42.264;23.826;2023-04-26T06:37:25;92847.25;;;10.15;74.65
61870;BME280;47810;42.264;23.826;2023-04-26T06:39:51;92841.84;;;10.28;71.81
61870;BME280;47810;42.264;23.826;2023-04-26T06:42:16;92848.41;;;10.33;73.68
61870;BME280;47810;42.264;23.826;2023-04-26T06:44:42;92844.53;;;10.48;73.75
61870;BME280;47810;42.264;23.826;2023-04-26T06:47:07;92851.97;;;10.55;74.57
61870;BME280;47810;42.264;23.826;2023-04-26T06:49:34;92849.88;;;10.37;74.31
61870;BME280;47810;42.264;23.826;2023-04-26T06:51:59;92850.63;;;10.60;74.66
61870;BME280;47810;42.264;23.826;2023-04-26T06:54:28;92847.44;;;10.45;75.71
61870;BME280;47810;42.264;23.826;2023-04-26T06:56:55;92851.22;;;10.64;75.87
61870;BME280;47810;42.264;23.826;2023-04-26T06:59:20;92847.56;;;10.76;74.27
61870;BME280;47810;42.264;23.826;2023-04-26T07:01:46;92854.84;;;10.52;75.97
61870;BME280;47810;42.264;23.826;2023-04-26T07:04:11;92856.69;;;10.72;74.08
61870;BME280;47810;42.264;23.826;2023-04-26T07:06:38;92855.22;;;10.47;74.06
61870;BME280;47810;42.264;23.826;2023-04-26T07:09:03;92849.13;;;10.24;74.17
61870;BME280;47810;42.264;23.826;2023-04-26T07:11:29;92857.03;;;10.46;74.15
61870;BME280;47810;42.264;23.826;2023-04-26T07:13:55;92857.66;;;10.71;74.07
61870;BME280;47810;42.264;23.826;2023-04-26T07:16:21;92858.75;;;10.68;71.00
61870;BME280;47810;42.264;23.826;2023-04-26T07:18:47;92859.84;;;10.66;69.58
61870;BME280;47810;42.264;23.826;2023-04-26T07:21:13;92853.19;;;10.51;67.65
61870;BME280;47810;42.264;23.826;2023-04-26T07:23:38;92858.22;;;10.42;66.80
61870;BME280;47810;42.264;23.826;2023-04-26T07:26:04;92856.06;;;10.47;66.52
61870;BME280;47810;42.264;23.826;2023-04-26T07:28:30;92855.81;;;10.51;68.11
61870;BME280;47810;42.264;23.826;2023-04-26T07:30:56;92848.66;;;10.41;66.23
61870;BME280;47810;42.264;23.826;2023-04-26T07:33:22;92856.50;;;10.53;66.23
61870;BME280;47810;42.264;23.826;2023-04-26T07:35:54;92862.50;;;10.66;65.00
61870;BME280;47810;42.264;23.826;2023-04-26T07:38:21;92858.56;;;10.49;65.36
61870;BME280;47810;42.264;23.826;2023-04-26T07:40:47;92865.41;;;10.52;65.63
61870;BME280;47810;42.264;23.826;2023-04-26T07:43:12;92869.63;;;10.20;65.55
61870;BME280;47810;42.264;23.826;2023-04-26T07:45:40;92870.72;;;10.07;65.75
61870;BME280;47810;42.264;23.826;2023-04-26T07:48:06;92871.19;;;10.23;66.42
61870;BME280;47810;42.264;23.826;2023-04-26T07:50:31;92868.78;;;10.42;66.12
61870;BME280;47810;42.264;23.826;2023-04-26T07:52:57;92867.13;;;10.41;64.06
61870;BME280;47810;42.264;23.826;2023-04-26T07:55:22;92866.38;;;10.51;64.72
61870;BME280;47810;42.264;23.826;2023-04-26T07:57:48;92870.78;;;10.61;64.27
61870;BME280;47810;42.264;23.826;2023-04-26T08:00:13;92870.38;;;10.77;63.71
61870;BME280;47810;42.264;23.826;2023-04-26T08:02:41;92862.03;;;10.61;63.88
61870;BME280;47810;42.264;23.826;2023-04-26T08:05:06;92860.19;;;10.72;63.99
61870;BME280;47810;42.264;23.826;2023-04-26T08:07:34;92865.13;;;10.66;62.85
61870;BME280;47810;42.264;23.826;2023-04-26T08:10:01;92859.78;;;10.88;63.92
61870;BME280;47810;42.264;23.826;2023-04-26T08:12:27;92856.09;;;11.01;63.21
61870;BME280;47810;42.264;23.826;2023-04-26T08:14:53;92862.28;;;11.32;62.42
61870;BME280;47810;42.264;23.826;2023-04-26T08:17:18;92856.31;;;11.09;63.23
61870;BME280;47810;42.264;23.826;2023-04-26T08:19:44;92856.94;;;11.22;65.10
61870;BME280;47810;42.264;23.826;2023-04-26T08:22:10;92867.97;;;11.27;64.84
61870;BME280;47810;42.264;23.826;2023-04-26T08:24:35;92862.50;;;11.19;64.08
61870;BME280;47810;42.264;23.826;2023-04-26T08:27:01;92859.66;;;11.32;63.92
61870;BME280;47810;42.264;23.826;2023-04-26T08:29:26;92856.94;;;11.22;64.66
61870;BME280;47810;42.264;23.826;2023-04-26T08:31:52;92859.00;;;11.39;63.86
61870;BME280;47810;42.264;23.826;2023-04-26T08:34:18;92870.94;;;11.34;65.94
61870;BME280;47810;42.264;23.826;2023-04-26T08:36:44;92867.72;;;11.30;65.65
61870;BME280;47810;42.264;23.826;2023-04-26T08:39:13;92864.41;;;11.17;66.33
61870;BME280;47810;42.264;23.826;2023-04-26T08:41:42;92865.72;;;11.02;66.50
61870;BME280;47810;42.264;23.826;2023-04-26T08:44:08;92865.97;;;10.99;65.26
61870;BME280;47810;42.264;23.826;2023-04-26T08:49:42;92869.53;;;10.98;62.68
61870;BME280;47810;42.264;23.826;2023-04-26T08:52:11;92866.91;;;10.98;63.59
61870;BME280;47810;42.264;23.826;2023-04-26T08:54:38;92874.41;;;10.81;64.96
61870;BME280;47810;42.264;23.826;2023-04-26T08:57:05;92878.28;;;10.77;67.00
61870;BME280;47810;42.264;23.826;2023-04-26T08:59:38;92877.03;;;10.92;69.30
61870;BME280;47810;42.264;23.826;2023-04-26T09:02:06;92875.16;;;10.72;69.77
61870;BME280;47810;42.264;23.826;2023-04-26T09:04:32;92875.16;;;10.72;68.36
61870;BME280;47810;42.264;23.826;2023-04-26T09:06:58;92888.59;;;10.80;68.92
61870;BME280;47810;42.264;23.826;2023-04-26T09:09:24;92886.53;;;10.84;70.67
61870;BME280;47810;42.264;23.826;2023-04-26T09:11:58;92894.72;;;10.81;70.86
61870;BME280;47810;42.264;23.826;2023-04-26T09:14:24;92894.13;;;10.77;72.39
61870;BME280;47810;42.264;23.826;2023-04-26T09:16:50;92905.03;;;10.18;72.28
61870;BME280;47810;42.264;23.826;2023-04-26T09:19:17;92902.63;;;10.15;71.66
61870;BME280;47810;42.264;23.826;2023-04-26T09:21:43;92900.94;;;10.14;69.74
61870;BME280;47810;42.264;23.826;2023-04-26T09:24:09;92895.44;;;9.94;69.38
61870;BME280;47810;42.264;23.826;2023-04-26T09:26:35;92911.47;;;10.14;71.18
61870;BME280;47810;42.264;23.826;2023-04-26T09:29:11;92910.41;;;10.16;69.46
61870;BME280;47810;42.264;23.826;2023-04-26T09:31:41;92904.31;;;9.93;70.60
61870;BME280;47810;42.264;23.826;2023-04-26T09:34:10;92915.81;;;10.03;69.46
61870;BME280;47810;42.264;23.826;2023-04-26T09:36:57;92921.31;;;10.00;70.05
61870;BME280;47810;42.264;23.826;2023-04-26T09:39:32;92911.25;;;9.94;69.14
61870;BME280;47810;42.264;23.826;2023-04-26T09:41:58;92904.31;;;9.93;70.49
61870;BME280;47810;42.264;23.826;2023-04-26T09:44:24;92902.13;;;9.53;68.91
61870;BME280;47810;42.264;23.826;2023-04-26T09:47:00;92906.22;;;9.57;69.81
61870;BME280;47810;42.264;23.826;2023-04-26T09:49:26;92899.03;;;9.71;70.59
61870;BME280;47810;42.264;23.826;2023-04-26T09:52:04;92903.41;;;9.37;68.39
61870;BME280;47810;42.264;23.826;2023-04-26T09:57:07;92898.97;;;9.37;67.12
61870;BME280;47810;42.264;23.826;2023-04-26T09:59:39;92904.59;;;9.32;65.48
61870;BME280;47810;42.264;23.826;2023-04-26T10:02:07;92901.59;;;9.37;66.79
61870;BME280;47810;42.264;23.826;2023-04-26T10:04:33;92899.94;;;9.36;65.50
61870;BME280;47810;42.264;23.826;2023-04-26T10:06:59;92898.16;;;9.48;65.71
61870;BME280;47810;42.264;23.826;2023-04-26T10:09:25;92894.53;;;9.26;63.05
61870;BME280;47810;42.264;23.826;2023-04-26T10:11:51;92903.53;;;9.35;64.95
61870;BME280;47810;42.264;23.826;2023-04-26T10:14:17;92891.47;;;9.55;63.55
61870;BME280;47810;42.264;23.826;2023-04-26T10:16:43;92888.97;;;9.65;61.22
61870;BME280;47810;42.264;23.826;2023-04-26T10:19:08;92887.63;;;9.48;63.63
61870;BME280;47810;42.264;23.826;2023-04-26T10:21:35;92897.13;;;9.73;61.79
61870;BME280;47810;42.264;23.826;2023-04-26T10:24:03;92888.84;;;9.77;62.98
61870;BME280;47810;42.264;23.826;2023-04-26T10:26:47;92890.66;;;9.77;63.90
61870;BME280;47810;42.264;23.826;2023-04-26T10:29:18;92880.06;;;10.11;62.11
61870;BME280;47810;42.264;23.826;2023-04-26T10:32:04;92880.56;;;10.27;59.95
61870;BME280;47810;42.264;23.826;2023-04-26T10:34:29;92871.81;;;10.38;59.65
61870;BME280;47810;42.264;23.826;2023-04-26T10:37:08;92865.09;;;10.34;58.77
61870;BME280;47810;42.264;23.826;2023-04-26T10:39:35;92880.00;;;10.67;58.94
61870;BME280;47810;42.264;23.826;2023-04-26T10:44:48;92870.09;;;10.91;54.19
61870;BME280;47810;42.264;23.826;2023-04-26T10:47:20;92874.47;;;11.23;53.75
61870;BME280;47810;42.264;23.826;2023-04-26T10:49:46;92864.47;;;11.27;55.64
61870;BME280;47810;42.264;23.826;2023-04-26T10:52:19;92863.75;;;11.46;53.27
61870;BME280;47810;42.264;23.826;2023-04-26T10:54:56;92870.59;;;11.69;54.85
61870;BME280;47810;42.264;23.826;2023-04-26T10:57:23;92869.31;;;11.42;51.20
61870;BME280;47810;42.264;23.826;2023-04-26T11:00:31;92858.78;;;11.52;50.76
61870;BME280;47810;42.264;23.826;2023-04-26T11:03:02;92860.09;;;11.58;52.08
61870;BME280;47810;42.264;23.826;2023-04-26T11:10:40;92858.81;;;11.83;50.83
61870;BME280;47810;42.264;23.826;2023-04-26T11:13:06;92852.25;;;11.77;53.43
61870;BME280;47810;42.264;23.826;2023-04-26T11:15:32;92845.81;;;11.70;51.43
61870;BME280;47810;42.264;23.826;2023-04-26T11:18:00;92843.44;;;11.88;53.35
61870;BME280;47810;42.264;23.826;2023-04-26T11:20:28;92849.22;;;11.82;53.32
61870;BME280;47810;42.264;23.826;2023-04-26T11:22:55;92845.28;;;11.76;53.52
61870;BME280;47810;42.264;23.826;2023-04-26T11:25:21;92861.44;;;11.94;50.04
61870;BME280;47810;42.264;23.826;2023-04-26T11:27:48;92847.66;;;12.10;51.29
61870;BME280;47810;42.264;23.826;2023-04-26T11:30:16;92860.47;;;12.05;52.96
61870;BME280;47810;42.264;23.826;2023-04-26T11:32:44;92852.94;;;12.00;50.64
61870;BME280;47810;42.264;23.826;2023-04-26T11:35:10;92860.47;;;12.05;51.77
61870;BME280;47810;42.264;23.826;2023-04-26T11:37:35;92853.22;;;12.07;52.03
61870;BME280;47810;42.264;23.826;2023-04-26T11:40:01;92857.72;;;12.16;53.30
61870;BME280;47810;42.264;23.826;2023-04-26T11:42:27;92855.47;;;12.02;50.79
61870;BME280;47810;42.264;23.826;2023-04-26T11:44:53;92861.63;;;11.81;53.50
61870;BME280;47810;42.264;23.826;2023-04-26T11:47:21;92862.75;;;12.19;56.63
61870;BME280;47810;42.264;23.826;2023-04-26T11:49:47;92861.91;;;12.19;54.95
61870;BME280;47810;42.264;23.826;2023-04-26T11:52:13;92858.53;;;12.07;56.10
61870;BME280;47810;42.264;23.826;2023-04-26T11:54:38;92854.72;;;11.69;56.23
61870;BME280;47810;42.264;23.826;2023-04-26T11:57:14;92867.59;;;11.83;57.91
61870;BME280;47810;42.264;23.826;2023-04-26T11:59:40;92862.16;;;11.54;55.75
61870;BME280;47810;42.264;23.826;2023-04-26T12:02:06;92874.84;;;11.39;54.11
61870;BME280;47810;42.264;23.826;2023-04-26T12:04:32;92870.75;;;11.05;56.41
61870;BME280;47810;42.264;23.826;2023-04-26T12:06:58;92864.25;;;10.98;57.63
61870;BME280;47810;42.264;23.826;2023-04-26T12:09:25;92866.91;;;10.98;58.08
61870;BME280;47810;42.264;23.826;2023-04-26T12:11:55;92857.66;;;11.03;57.35
61870;BME280;47810;42.264;23.826;2023-04-26T12:14:28;92850.13;;;10.99;56.96
61870;BME280;47810;42.264;23.826;2023-04-26T12:16:54;92851.59;;;11.12;57.65
61870;BME280;47810;42.264;23.826;2023-04-26T12:19:22;92862.75;;;11.16;56.38
61870;BME280;47810;42.264;23.826;2023-04-26T12:21:47;92857.56;;;10.93;57.40
61870;BME280;47810;42.264;23.826;2023-04-26T12:26:46;92870.59;;;10.85;59.33
61870;BME280;47810;42.264;23.826;2023-04-26T12:29:13;92883.81;;;10.74;58.84
61870;BME280;47810;42.264;23.826;2023-04-26T12:31:39;92886.44;;;10.85;61.24
61870;BME280;47810;42.264;23.826;2023-04-26T12:34:04;92876.28;;;11.02;60.41
61870;BME280;47810;42.264;23.826;2023-04-26T12:36:30;92878.94;;;10.90;60.87
61870;BME280;47810;42.264;23.826;2023-04-26T12:38:56;92887.88;;;10.78;61.82
61870;BME280;47810;42.264;23.826;2023-04-26T12:41:22;92879.03;;;10.68;61.95
61870;BME280;47810;42.264;23.826;2023-04-26T12:43:47;92884.03;;;10.82;62.16
61870;BME280;47810;42.264;23.826;2023-04-26T12:46:13;92874.72;;;10.67;61.22
61870;BME280;47810;42.264;23.826;2023-04-26T12:48:42;92875.44;;;11.01;61.62
61870;BME280;47810;42.264;23.826;2023-04-26T12:51:08;92881.81;;;10.99;62.42
61870;BME280;47810;42.264;23.826;2023-04-26T12:53:34;92878.69;;;10.61;62.10
61870;BME280;47810;42.264;23.826;2023-04-26T12:55:59;92874.50;;;10.59;63.40
61870;BME280;47810;42.264;23.826;2023-04-26T12:58:25;92870.94;;;10.48;63.51
61870;BME280;47810;42.264;23.826;2023-04-26T13:00:51;92873.66;;;10.58;63.03
61870;BME280;47810;42.264;23.826;2023-04-26T13:03:16;92891.50;;;10.34;61.67
61870;BME280;47810;42.264;23.826;2023-04-26T13:05:44;92884.38;;;10.23;62.38
61870;BME280;47810;42.264;23.826;2023-04-26T13:08:10;92888.41;;;10.61;61.19